createdAt,value
2023-04-21T00:01:59.777Z,99905.05
2023-04-21T00:04:28.781Z,99908.19
2023-04-21T00:06:57.208Z,99909.20
2023-04-21T00:09:25.155Z,99909.55
2023-04-21T00:11:53.096Z,99902.58
2023-04-21T00:14:21.133Z,99903.63
2023-04-21T00:16:52.827Z,99902.23
2023-04-21T00:19:21.095Z,99901.52
2023-04-21T00:21:49.269Z,99899.77
2023-04-21T00:24:17.244Z,99899.60
2023-04-21T00:26:45.323Z,99899.16
2023-04-21T00:29:13.187Z,99897.72
2023-04-21T00:31:41.219Z,99897.21
2023-04-21T00:34:09.168Z,99896.15
2023-04-21T00:36:37.134Z,99897.45
2023-04-21T00:39:05.061Z,99893.42
2023-04-21T00:41:33.286Z,99893.59
2023-04-21T00:44:01.898Z,99894.93
2023-04-21T00:46:30.115Z,99896.32
2023-04-21T00:48:58.939Z,99895.39
2023-04-21T00:51:28.344Z,99896.45
2023-04-21T00:53:56.705Z,99897.92
2023-04-21T00:56:24.895Z,99896.42
2023-04-21T00:58:52.785Z,99893.15
2023-04-21T01:01:22.777Z,99892.11
2023-04-21T01:03:51.836Z,99893.77
2023-04-21T01:06:19.779Z,99893.95
2023-04-21T01:08:48.029Z,99895.39
2023-04-21T01:11:17.356Z,99892.92
2023-04-21T01:13:45.324Z,99893.89
2023-04-21T01:16:23.375Z,99891.75
2023-04-21T01:18:53.428Z,99894.58
2023-04-21T01:21:22.063Z,99893.47
2023-04-21T01:23:49.845Z,99889.73
2023-04-21T01:26:20.095Z,99890.06
2023-04-21T01:28:48.898Z,99887.48
2023-04-21T01:31:17.152Z,99885.08
2023-04-21T01:33:45.109Z,99884.23
2023-04-21T01:36:13.150Z,99885.10
2023-04-21T01:38:41.248Z,99883.92
2023-04-21T01:41:09.475Z,99878.73
2023-04-21T01:43:37.440Z,99878.89
2023-04-21T01:46:06.017Z,99877.66
2023-04-21T01:48:34.011Z,99876.52
2023-04-21T01:51:01.869Z,99872.05
2023-04-21T01:53:29.934Z,99872.78
2023-04-21T01:55:57.857Z,99868.98
2023-04-21T01:58:25.648Z,99870.16
2023-04-21T02:00:53.740Z,99867.54
2023-04-21T02:03:22.864Z,99865.69
2023-04-21T02:05:51.134Z,99865.34
2023-04-21T02:08:18.959Z,99862.75
2023-04-21T02:10:49.252Z,99858.87
2023-04-21T02:13:17.199Z,99854.42
2023-04-21T02:15:45.084Z,99852.92
2023-04-21T02:18:15.055Z,99850.13
2023-04-21T02:20:43.023Z,99851.36
2023-04-21T02:23:11.330Z,99845.85
2023-04-21T02:25:39.265Z,99848.72
2023-04-21T02:28:07.432Z,99846.17
2023-04-21T02:30:35.771Z,99844.81
2023-04-21T02:33:03.744Z,99846.57
2023-04-21T02:35:33.814Z,99851.02
2023-04-21T02:38:07.281Z,99845.82
2023-04-21T02:40:35.283Z,99849.42
2023-04-21T02:43:03.342Z,99849.80
2023-04-21T02:45:32.582Z,99847.97
2023-04-21T02:48:00.517Z,99845.38
2023-04-21T02:50:31.241Z,99844.07
2023-04-21T02:52:59.232Z,99843.19
2023-04-21T02:55:27.272Z,99841.56
2023-04-21T02:57:55.133Z,99837.92
2023-04-21T03:00:23.815Z,99836.66
2023-04-21T03:02:53.393Z,99833.86
2023-04-21T03:05:21.666Z,99829.21
2023-04-21T03:07:49.575Z,99829.41
2023-04-21T03:10:17.932Z,99831.63
2023-04-21T03:12:45.981Z,99830.10
2023-04-21T03:15:14.619Z,99830.52
2023-04-21T03:17:42.929Z,99834.58
2023-04-21T03:20:12.027Z,99833.91
2023-04-21T03:22:39.906Z,99836.30
2023-04-21T03:25:08.155Z,99841.30
2023-04-21T03:27:36.572Z,99841.08
2023-04-21T03:30:06.808Z,99844.90
2023-04-21T03:32:35.843Z,99841.73
2023-04-21T03:35:04.513Z,99838.95
2023-04-21T03:37:32.528Z,99839.54
2023-04-21T03:40:01.405Z,99837.02
2023-04-21T03:42:30.240Z,99838.34
2023-04-21T03:45:02.782Z,99838.79
2023-04-21T03:47:35.244Z,99836.08
2023-04-21T03:50:04.902Z,99836.00
2023-04-21T03:52:33.395Z,99831.34
2023-04-21T03:55:01.493Z,99828.56
2023-04-21T03:57:29.745Z,99829.38
2023-04-21T03:59:57.819Z,99821.93
2023-04-21T04:02:25.857Z,99824.52
2023-04-21T04:04:53.968Z,99822.30
2023-04-21T04:07:22.021Z,99822.43
2023-04-21T04:09:49.909Z,99818.48
2023-04-21T04:12:17.990Z,99820.88
2023-04-21T04:14:46.043Z,99816.92
2023-04-21T04:17:13.907Z,99817.48
2023-04-21T04:19:41.782Z,99816.30
2023-04-21T04:22:09.604Z,99814.16
2023-04-21T04:24:37.626Z,99817.16
2023-04-21T04:27:05.631Z,99816.20
2023-04-21T04:29:35.049Z,99823.69
2023-04-21T04:32:04.302Z,99824.78
2023-04-21T04:34:32.736Z,99829.91
2023-04-21T04:37:02.419Z,99828.02
2023-04-21T04:39:32.000Z,99828.82
2023-04-21T04:41:59.960Z,99828.51
2023-04-21T04:44:28.229Z,99832.06
2023-04-21T04:46:56.883Z,99834.23
2023-04-21T04:49:24.858Z,99833.02
2023-04-21T04:51:52.766Z,99837.45
2023-04-21T04:57:20.827Z,99835.31
2023-04-21T04:59:48.737Z,99837.83
2023-04-21T05:02:16.994Z,99836.84
2023-04-21T05:04:45.070Z,99837.13
2023-04-21T05:07:13.111Z,99833.86
2023-04-21T05:09:40.998Z,99838.64
2023-04-21T05:12:09.673Z,99841.54
2023-04-21T05:14:37.534Z,99841.21
2023-04-21T05:17:05.451Z,99838.80
2023-04-21T05:19:36.423Z,99841.52
2023-04-21T05:22:06.514Z,99843.38
2023-04-21T05:24:35.234Z,99836.28
2023-04-21T05:27:03.266Z,99835.66
2023-04-21T05:29:31.322Z,99838.80
2023-04-21T05:31:59.266Z,99843.86
2023-04-21T05:34:27.355Z,99847.29
2023-04-21T05:36:55.420Z,99845.45
2023-04-21T05:39:23.466Z,99845.64
2023-04-21T05:41:51.306Z,99846.88
2023-04-21T05:44:19.501Z,99844.89
2023-04-21T05:46:47.578Z,99838.90
2023-04-21T05:49:15.798Z,99840.98
2023-04-21T05:51:43.577Z,99843.92
2023-04-21T05:54:11.483Z,99838.25
2023-04-21T05:56:39.467Z,99841.11
2023-04-21T05:59:07.421Z,99842.73
2023-04-21T06:01:36.084Z,99843.53
2023-04-21T06:04:04.634Z,99838.95
2023-04-21T06:06:32.919Z,99841.34
2023-04-21T06:09:00.991Z,99839.13
2023-04-21T06:11:29.054Z,99832.86
2023-04-21T06:13:58.733Z,99831.97
2023-04-21T06:16:27.310Z,99834.40
2023-04-21T06:18:55.332Z,99831.54
2023-04-21T06:21:23.215Z,99830.94
2023-04-21T06:23:51.715Z,99828.86
2023-04-21T06:26:19.837Z,99820.54
2023-04-21T06:28:47.816Z,99824.58
2023-04-21T06:31:16.085Z,99820.54
2023-04-21T06:33:44.328Z,99818.79
2023-04-21T06:36:12.374Z,99821.16
2023-04-21T06:38:41.690Z,99822.19
2023-04-21T06:41:10.091Z,99821.77
2023-04-21T06:43:38.060Z,99819.05
2023-04-21T06:46:06.039Z,99817.25
2023-04-21T06:48:33.815Z,99818.44
2023-04-21T06:51:02.797Z,99814.86
2023-04-21T06:53:31.021Z,99814.55
2023-04-21T06:55:59.234Z,99816.69
2023-04-21T06:58:27.566Z,99820.69
2023-04-21T07:00:55.817Z,99821.46
2023-04-21T07:03:23.764Z,99823.46
2023-04-21T07:05:51.791Z,99822.15
2023-04-21T07:08:19.857Z,99822.42
2023-04-21T07:10:47.829Z,99824.02
2023-04-21T07:13:16.192Z,99827.48
2023-04-21T07:15:44.135Z,99826.23
2023-04-21T07:18:12.113Z,99827.45
2023-04-21T07:20:40.033Z,99826.14
2023-04-21T07:23:07.983Z,99828.15
2023-04-21T07:25:36.706Z,99830.30
2023-04-21T07:28:06.682Z,99826.67
2023-04-21T07:30:34.579Z,99828.23
2023-04-21T07:33:02.667Z,99828.86
2023-04-21T07:35:31.062Z,99824.02
2023-04-21T07:37:59.117Z,99830.95
2023-04-21T07:40:27.153Z,99834.13
2023-04-21T07:42:55.087Z,99830.47
2023-04-21T07:45:23.133Z,99839.15
2023-04-21T07:47:51.605Z,99833.37
2023-04-21T07:50:19.661Z,99836.02
2023-04-21T07:52:48.299Z,99839.36
2023-04-21T07:55:16.210Z,99836.80
2023-04-21T07:57:44.244Z,99836.02
2023-04-21T08:00:13.149Z,99839.58
2023-04-21T08:02:42.234Z,99836.21
2023-04-21T08:05:10.527Z,99832.50
2023-04-21T08:07:39.776Z,99829.73
2023-04-21T08:10:08.940Z,99837.60
2023-04-21T08:12:37.197Z,99832.88
2023-04-21T08:15:08.355Z,99833.84
2023-04-21T08:17:37.469Z,99840.30
2023-04-21T08:20:06.366Z,99840.13
2023-04-21T08:22:35.815Z,99844.34
2023-04-21T08:25:04.892Z,99841.42
2023-04-21T08:27:32.993Z,99840.61
2023-04-21T08:30:00.999Z,99838.27
2023-04-21T08:32:29.362Z,99845.00
2023-04-21T08:34:57.402Z,99843.51
2023-04-21T08:37:25.331Z,99842.79
2023-04-21T08:39:54.545Z,99836.30
2023-04-21T08:42:22.647Z,99835.19
2023-04-21T08:44:51.022Z,99843.31
2023-04-21T08:47:20.410Z,99847.21
2023-04-21T08:50:35.873Z,99839.27
2023-04-21T08:53:03.796Z,99834.42
2023-04-21T08:55:32.479Z,99844.51
2023-04-21T08:58:00.699Z,99848.80
2023-04-21T09:00:28.640Z,99852.16
2023-04-21T09:03:02.101Z,99852.79
2023-04-21T09:05:32.682Z,99838.63
2023-04-21T09:08:08.603Z,99843.75
2023-04-21T09:10:46.663Z,99843.66
2023-04-21T09:13:14.873Z,99845.16
2023-04-21T09:15:44.801Z,99845.26
2023-04-21T09:18:16.641Z,99850.05
2023-04-21T09:20:45.590Z,99852.35
2023-04-21T09:23:13.712Z,99851.06
2023-04-21T09:25:42.588Z,99856.56
2023-04-21T09:28:11.698Z,99869.41
2023-04-21T09:30:40.728Z,99865.92
2023-04-21T09:33:27.316Z,99861.97
2023-04-21T09:36:02.081Z,99861.25
2023-04-21T09:38:30.597Z,99862.52
2023-04-21T09:40:59.067Z,99867.20
2023-04-21T09:43:27.507Z,99867.77
2023-04-21T09:45:55.461Z,99865.64
2023-04-21T09:48:23.711Z,99873.99
2023-04-21T09:51:22.763Z,99879.31
2023-04-21T09:53:40.904Z,99881.02
2023-04-21T09:56:11.890Z,99883.04
2023-04-21T09:58:48.811Z,99882.89
2023-04-21T10:01:16.812Z,99881.48
2023-04-21T10:03:46.749Z,99888.25
2023-04-21T10:06:15.421Z,99884.27
2023-04-21T10:08:43.322Z,99886.84
2023-04-21T10:11:11.811Z,99885.77
2023-04-21T10:13:39.806Z,99875.69
2023-04-21T10:16:11.243Z,99880.74
2023-04-21T10:18:42.847Z,99886.94
2023-04-21T10:21:12.263Z,99894.81
2023-04-21T10:23:47.168Z,99895.29
2023-04-21T10:26:34.619Z,99904.34
2023-04-21T10:29:04.480Z,99921.71
2023-04-21T10:31:36.570Z,99911.67
2023-04-21T10:34:08.050Z,99921.82
2023-04-21T10:37:06.278Z,99912.67
2023-04-21T10:39:36.448Z,99926.96
2023-04-21T10:42:13.832Z,99930.52
2023-04-21T10:44:53.596Z,99929.35
2023-04-21T10:47:51.481Z,99932.80
2023-04-21T10:50:29.676Z,99916.89
2023-04-21T10:52:59.339Z,99913.09
2023-04-21T10:55:28.468Z,99912.60
2023-04-21T10:57:56.407Z,99900.00
2023-04-21T11:00:24.488Z,99899.05
2023-04-21T11:02:54.316Z,99896.21
2023-04-21T11:05:30.808Z,99904.30
2023-04-21T11:08:03.932Z,99908.58
2023-04-21T11:10:55.099Z,99911.56
2023-04-21T11:13:25.898Z,99917.09
2023-04-21T11:16:07.624Z,99925.41
2023-04-21T11:18:43.003Z,99919.73
2023-04-21T11:21:18.537Z,99920.80
2023-04-21T11:23:54.353Z,99922.39
2023-04-21T11:26:34.664Z,99915.83
2023-04-21T11:29:07.537Z,99918.75
2023-04-21T11:31:36.764Z,99916.34
2023-04-21T11:34:05.462Z,99908.46
2023-04-21T11:36:34.877Z,99903.64
2023-04-21T11:39:10.315Z,99898.74
2023-04-21T11:41:40.334Z,99889.18
2023-04-21T11:44:09.135Z,99886.23
2023-04-21T11:46:37.809Z,99883.34
2023-04-21T11:49:07.242Z,99881.33
2023-04-21T11:51:42.594Z,99878.27
2023-04-21T11:54:12.286Z,99872.95
2023-04-21T11:56:46.270Z,99872.81
2023-04-21T11:59:25.423Z,99871.61
2023-04-21T12:01:54.449Z,99869.30
2023-04-21T12:04:23.710Z,99871.60
2023-04-21T12:06:59.480Z,99873.52
2023-04-21T12:09:27.682Z,99864.58
2023-04-21T12:11:57.698Z,99857.77
2023-04-21T12:14:27.092Z,99855.30
2023-04-21T12:16:56.347Z,99849.70
2023-04-21T12:19:40.287Z,99851.27
2023-04-21T12:22:09.576Z,99847.25
2023-04-21T12:24:37.753Z,99850.40
2023-04-21T12:27:06.425Z,99844.05
2023-04-21T12:29:38.679Z,99839.29
2023-04-21T12:32:07.052Z,99833.59
2023-04-21T12:34:35.605Z,99835.50
2023-04-21T12:37:03.756Z,99833.52
2023-04-21T12:39:32.270Z,99831.60
2023-04-21T12:42:01.697Z,99830.96
2023-04-21T12:44:29.713Z,99830.46
2023-04-21T12:46:57.910Z,99824.50
2023-04-21T12:49:25.870Z,99825.65
2023-04-21T12:51:53.683Z,99823.31
2023-04-21T12:54:21.526Z,99827.00
2023-04-21T12:56:49.532Z,99825.67
2023-04-21T12:59:17.314Z,99826.33
2023-04-21T13:01:45.266Z,99827.24
2023-04-21T13:04:13.527Z,99830.95
2023-04-21T13:06:42.020Z,99827.19
2023-04-21T13:09:09.945Z,99833.15
2023-04-21T13:11:37.950Z,99827.20
2023-04-21T13:14:05.892Z,99831.33
2023-04-21T13:16:33.737Z,99828.91
2023-04-21T13:19:01.732Z,99831.04
2023-04-21T13:21:29.712Z,99828.86
2023-04-21T13:23:58.315Z,99829.09
2023-04-21T13:26:27.162Z,99825.19
2023-04-21T13:28:54.986Z,99824.29
2023-04-21T13:31:22.885Z,99823.51
2023-04-21T13:33:53.033Z,99826.12
2023-04-21T13:36:21.913Z,99821.05
2023-04-21T13:38:51.218Z,99821.45
2023-04-21T13:41:19.058Z,99815.63
2023-04-21T13:43:47.122Z,99808.36
2023-04-21T13:46:14.994Z,99809.66
2023-04-21T13:48:44.796Z,99811.11
2023-04-21T13:51:13.036Z,99801.48
2023-04-21T13:53:41.259Z,99799.23
2023-04-21T13:56:10.271Z,99804.54
2023-04-21T13:58:38.077Z,99808.70
2023-04-21T14:01:06.123Z,99802.79
2023-04-21T14:03:34.666Z,99799.45
2023-04-21T14:06:02.922Z,99797.79
2023-04-21T14:08:30.863Z,99800.88
2023-04-21T14:10:58.792Z,99805.02
2023-04-21T14:16:01.953Z,99801.84
2023-04-21T14:18:30.123Z,99800.42
2023-04-21T14:20:58.148Z,99796.73
2023-04-21T14:23:26.175Z,99801.70
2023-04-21T14:25:55.046Z,99807.54
2023-04-21T14:28:23.450Z,99810.73
2023-04-21T14:30:51.271Z,99811.15
2023-04-21T14:33:19.329Z,99809.08
2023-04-21T14:35:47.259Z,99807.50
2023-04-21T14:38:15.232Z,99802.09
2023-04-21T14:40:43.229Z,99802.70
2023-04-21T14:43:11.694Z,99805.31
2023-04-21T14:45:41.202Z,99803.34
2023-04-21T14:48:09.583Z,99800.53
2023-04-21T14:50:37.857Z,99799.07
2023-04-21T14:53:06.927Z,99801.30
2023-04-21T14:55:35.749Z,99805.04
2023-04-21T14:58:03.949Z,99798.35
2023-04-21T15:00:32.181Z,99794.08
2023-04-21T15:03:00.668Z,99789.52
2023-04-21T15:05:29.315Z,99789.48
2023-04-21T15:07:57.454Z,99787.39
2023-04-21T15:10:25.668Z,99788.86
2023-04-21T15:12:53.837Z,99795.55
2023-04-21T15:15:21.731Z,99794.61
2023-04-21T15:17:49.985Z,99792.55
2023-04-21T15:20:18.797Z,99791.59
2023-04-21T15:22:47.607Z,99786.72
2023-04-21T15:25:15.626Z,99781.68
2023-04-21T15:27:43.532Z,99779.58
2023-04-21T15:30:12.528Z,99780.20
2023-04-21T15:32:40.871Z,99785.88
2023-04-21T15:35:08.856Z,99785.55
2023-04-21T15:37:37.014Z,99790.02
2023-04-21T15:40:06.079Z,99796.31
2023-04-21T15:42:34.297Z,99805.27
2023-04-21T15:45:04.105Z,99810.64
2023-04-21T15:47:32.167Z,99812.20
2023-04-21T15:50:00.339Z,99811.34
2023-04-21T15:52:28.527Z,99825.64
2023-04-21T15:54:56.679Z,99824.60
2023-04-21T15:57:28.492Z,99828.09
2023-04-21T15:59:56.539Z,99823.23
2023-04-21T16:02:24.705Z,99816.07
2023-04-21T16:04:53.282Z,99820.25
2023-04-21T16:07:21.953Z,99834.44
2023-04-21T16:09:49.951Z,99833.83
2023-04-21T16:12:17.762Z,99810.13
2023-04-21T16:14:55.837Z,99797.50
2023-04-21T16:17:27.655Z,99774.26
2023-04-21T16:19:55.656Z,99775.54
2023-04-21T16:22:23.623Z,99782.77
2023-04-21T16:24:53.263Z,99780.37
2023-04-21T16:27:21.100Z,99774.72
2023-04-21T16:29:50.445Z,99771.16
2023-04-21T16:32:18.608Z,99770.80
2023-04-21T16:34:46.831Z,99771.80
2023-04-21T16:37:14.793Z,99776.30
2023-04-21T16:39:43.057Z,99780.56
2023-04-21T16:42:11.125Z,99778.42
2023-04-21T16:44:39.351Z,99771.45
2023-04-21T16:47:07.591Z,99770.23
2023-04-21T16:49:36.291Z,99770.94
2023-04-21T16:52:04.335Z,99772.77
2023-04-21T16:54:32.190Z,99771.85
2023-04-21T16:57:00.040Z,99773.81
2023-04-21T16:59:27.922Z,99775.27
2023-04-21T17:01:56.485Z,99777.83
2023-04-21T17:04:24.595Z,99788.50
2023-04-21T17:06:52.749Z,99800.30
2023-04-21T17:09:20.708Z,99798.31
2023-04-21T17:11:48.676Z,99806.65
2023-04-21T17:14:16.548Z,99804.84
2023-04-21T17:16:44.409Z,99806.63
2023-04-21T17:19:12.407Z,99806.98
2023-04-21T17:21:40.198Z,99814.59
2023-04-21T17:24:08.209Z,99822.19
2023-04-21T17:26:36.188Z,99825.86
2023-04-21T17:29:05.132Z,99829.45
2023-04-21T17:31:33.129Z,99835.98
2023-04-21T17:34:01.516Z,99838.36
2023-04-21T17:36:29.947Z,99842.89
2023-04-21T17:38:58.684Z,99850.37
2023-04-21T17:41:26.612Z,99856.55
2023-04-21T17:43:57.414Z,99858.61
2023-04-21T17:46:26.461Z,99861.89
2023-04-21T17:48:54.358Z,99859.05
2023-04-21T17:51:22.284Z,99859.56
2023-04-21T17:53:50.490Z,99856.35
2023-04-21T17:56:19.083Z,99855.14
2023-04-21T17:58:47.025Z,99862.02
2023-04-21T18:01:15.098Z,99857.50
2023-04-21T18:03:43.329Z,99853.51
2023-04-21T18:06:11.877Z,99853.15
2023-04-21T18:08:40.747Z,99852.75
2023-04-21T18:11:09.219Z,99854.49
2023-04-21T18:13:37.252Z,99852.52
2023-04-21T18:16:05.340Z,99848.94
2023-04-21T18:18:33.366Z,99850.70
2023-04-21T18:21:01.203Z,99852.41
2023-04-21T18:23:29.120Z,99853.13
2023-04-21T18:25:57.099Z,99848.55
2023-04-21T18:28:25.420Z,99843.16
2023-04-21T18:30:53.554Z,99841.98
2023-04-21T18:33:21.399Z,99842.56
2023-04-21T18:35:49.446Z,99837.92
2023-04-21T18:38:17.335Z,99835.41
2023-04-21T18:40:45.202Z,99828.39
2023-04-21T18:43:14.987Z,99822.39
2023-04-21T18:45:43.096Z,99820.50
2023-04-21T18:48:11.121Z,99813.33
2023-04-21T18:50:40.721Z,99812.28
2023-04-21T18:53:09.073Z,99806.22
2023-04-21T18:55:37.716Z,99808.56
2023-04-21T18:58:06.172Z,99804.83
2023-04-21T19:00:37.434Z,99806.36
2023-04-21T19:03:06.274Z,99804.74
2023-04-21T19:05:36.789Z,99803.95
2023-04-21T19:08:05.308Z,99800.96
2023-04-21T19:10:37.988Z,99799.98
2023-04-21T19:13:05.904Z,99799.05
2023-04-21T19:15:33.906Z,99796.80
2023-04-21T19:18:01.980Z,99797.44
2023-04-21T19:20:30.649Z,99798.96
2023-04-21T19:22:59.030Z,99793.35
2023-04-21T19:25:27.068Z,99793.16
2023-04-21T19:27:55.020Z,99793.81
2023-04-21T19:30:22.945Z,99793.84
2023-04-21T19:32:50.800Z,99788.87
2023-04-21T19:35:18.890Z,99785.61
2023-04-21T19:37:47.232Z,99779.46
2023-04-21T19:40:15.450Z,99776.54
2023-04-21T19:42:43.414Z,99780.45
2023-04-21T19:45:11.482Z,99785.98
2023-04-21T19:47:39.515Z,99778.14
2023-04-21T19:50:08.538Z,99774.18
2023-04-21T19:52:36.727Z,99774.19
2023-04-21T19:55:05.258Z,99770.61
2023-04-21T19:57:33.116Z,99771.66
2023-04-21T20:00:01.082Z,99770.71
2023-04-21T20:02:29.710Z,99767.30
2023-04-21T20:04:57.815Z,99768.53
2023-04-21T20:07:26.004Z,99766.40
2023-04-21T20:09:53.881Z,99768.02
2023-04-21T20:12:21.725Z,99768.65
2023-04-21T20:14:49.710Z,99771.73
2023-04-21T20:17:17.561Z,99771.73
2023-04-21T20:19:46.875Z,99769.43
2023-04-21T20:22:14.882Z,99767.37
2023-04-21T20:24:42.865Z,99770.38
2023-04-21T20:27:10.831Z,99773.41
2023-04-21T20:29:39.027Z,99773.45
2023-04-21T20:32:07.397Z,99773.19
2023-04-21T20:34:36.225Z,99771.53
2023-04-21T20:37:05.309Z,99774.87
2023-04-21T20:39:33.144Z,99778.52
2023-04-21T20:42:11.924Z,99776.46
2023-04-21T20:44:43.028Z,99772.14
2023-04-21T20:47:11.627Z,99770.27
2023-04-21T20:49:39.977Z,99768.48
2023-04-21T20:52:08.882Z,99762.52
2023-04-21T20:54:38.231Z,99764.38
2023-04-21T20:57:07.648Z,99762.41
2023-04-21T20:59:35.925Z,99761.98
2023-04-21T21:02:04.349Z,99760.39
2023-04-21T21:04:32.963Z,99758.46
2023-04-21T21:08:37.835Z,99758.45
2023-04-21T21:11:06.504Z,99759.69
2023-04-21T21:13:35.565Z,99757.92
2023-04-21T21:16:03.430Z,99756.80
2023-04-21T21:18:34.595Z,99755.46
2023-04-21T21:21:02.578Z,99752.44
2023-04-21T21:23:32.893Z,99750.09
2023-04-21T21:26:00.726Z,99748.48
2023-04-21T21:28:30.613Z,99742.62
2023-04-21T21:30:58.373Z,99744.09
2023-04-21T21:33:26.494Z,99740.53
2023-04-21T21:35:54.284Z,99743.09
2023-04-21T21:38:22.196Z,99742.04
2023-04-21T21:40:50.203Z,99744.59
2023-04-21T21:43:18.369Z,99745.20
2023-04-21T21:45:46.261Z,99746.02
2023-04-21T21:48:16.706Z,99751.80
2023-04-21T21:50:44.694Z,99752.34
2023-04-21T21:53:12.665Z,99749.55
2023-04-21T21:55:40.557Z,99749.51
2023-04-21T21:58:08.600Z,99748.53
2023-04-21T22:00:39.053Z,99750.35
2023-04-21T22:03:07.552Z,99753.55
2023-04-21T22:05:36.010Z,99752.36
2023-04-21T22:08:04.176Z,99750.64
2023-04-21T22:10:32.583Z,99747.39
2023-04-21T22:13:00.863Z,99749.70
2023-04-21T22:15:28.883Z,99747.28
2023-04-21T22:17:56.777Z,99745.27
2023-04-21T22:20:27.002Z,99744.80
2023-04-21T22:22:54.860Z,99744.37
2023-04-21T22:25:26.938Z,99742.30
2023-04-21T22:27:55.718Z,99742.43
2023-04-21T22:30:23.653Z,99740.85
2023-04-21T22:32:51.553Z,99744.63
2023-04-21T22:35:19.779Z,99743.69
2023-04-21T22:37:47.671Z,99740.85
2023-04-21T22:40:15.615Z,99744.13
2023-04-21T22:42:43.600Z,99743.95
2023-04-21T22:45:11.597Z,99742.70
2023-04-21T22:47:39.429Z,99742.23
2023-04-21T22:50:09.344Z,99745.93
2023-04-21T22:52:37.739Z,99746.95
2023-04-21T22:55:06.341Z,99746.66
2023-04-21T22:57:37.261Z,99747.29
2023-04-21T23:00:06.491Z,99745.52
2023-04-21T23:02:34.499Z,99743.03
2023-04-21T23:05:02.880Z,99737.81
2023-04-21T23:07:31.710Z,99733.73
2023-04-21T23:10:00.004Z,99733.02
2023-04-21T23:12:28.200Z,99730.07
2023-04-21T23:14:56.222Z,99730.57
2023-04-21T23:17:24.444Z,99730.61
2023-04-21T23:19:52.550Z,99731.27
2023-04-21T23:22:20.839Z,99731.05
2023-04-21T23:24:48.690Z,99727.34
2023-04-21T23:27:16.784Z,99728.73
2023-04-21T23:29:44.746Z,99725.58
2023-04-21T23:32:12.694Z,99727.25
2023-04-21T23:34:40.680Z,99727.29
2023-04-21T23:37:08.684Z,99727.24
2023-04-21T23:39:36.699Z,99728.30
2023-04-21T23:42:04.865Z,99723.73
2023-04-21T23:44:32.764Z,99727.77
2023-04-21T23:47:01.374Z,99725.62
2023-04-21T23:49:29.441Z,99725.34
2023-04-21T23:51:57.440Z,99724.05
2023-04-21T23:54:25.578Z,99725.17
2023-04-21T23:56:53.454Z,99727.45
2023-04-21T23:59:21.465Z,99731.70
